Time,TemperatureF,DewpointF,PressureIn,WindDirection,WindDirectionDegrees,WindSpeedMPH,WindSpeedGustMPH,Humidity,HourlyPrecipIn,Conditions,Clouds,dailyrainin,SolarRadiationWatts/m^2,SoftwareType,DateUTC
2014-08-20 00:03:00,48.2,44.8,30.03,NW,304,0.0,0.0,88,0.00,CLR,,0.00,0.0,WeatherDisplay:10.37,2014-08-19 23:03:00,
2014-08-20 00:08:00,48.1,44.7,30.03,NW,304,0.0,0.0,88,0.00,CLR,,0.00,0.0,WeatherDisplay:10.37,2014-08-19 23:08:00,
2014-08-20 00:13:00,48.0,44.6,30.03,NW,304,0.0,0.0,88,0.00,CLR,,0.00,0.0,WeatherDisplay:10.37,2014-08-19 23:13:00,
2014-08-20 00:18:00,47.9,44.5,30.03,NW,304,0.0,0.0,88,0.00,CLR,,0.00,0.0,WeatherDisplay:10.37,2014-08-19 23:18:00,
2014-08-20 00:23:00,47.7,44.3,30.03,NW,304,0.0,0.0,88,0.00,CLR,,0.00,0.0,WeatherDisplay:10.37,2014-08-19 23:23:00,
2014-08-20 00:28:00,47.7,44.3,30.03,NW,304,0.0,0.0,88,0.00,CLR,,0.00,0.0,WeatherDisplay:10.37,2014-08-19 23:28:00,
2014-08-20 00:33:00,47.5,44.1,30.03,NW,304,0.0,0.0,88,0.00,CLR,,0.00,0.0,WeatherDisplay:10.37,2014-08-19 23:33:00,
2014-08-20 00:38:00,47.5,44.1,30.03,NW,304,0.0,0.0,88,0.00,CLR,,0.00,0.0,WeatherDisplay:10.37,2014-08-19 23:38:00,
2014-08-20 00:43:00,47.4,44.0,30.03,NW,304,0.0,0.0,88,0.00,CLR,,0.00,0.0,WeatherDisplay:10.37,2014-08-19 23:43:00,
2014-08-20 00:48:00,47.3,43.9,30.03,NW,304,0.0,0.0,88,0.00,CLR,,0.00,0.0,WeatherDisplay:10.37,2014-08-19 23:48:00,
2014-08-20 00:53:00,47.1,43.7,30.03,NW,304,0.0,0.0,88,0.00,CLR,,0.00,0.0,WeatherDisplay:10.37,2014-08-19 23:53:00,
2014-08-20 00:58:00,46.9,43.5,30.03,NW,304,0.0,0.0,88,0.00,CLR,,0.00,0.0,WeatherDisplay:10.37,2014-08-19 23:58:00,
2014-08-20 01:03:00,46.9,43.8,30.03,NW,304,0.0,0.0,89,0.00,CLR,,0.00,0.0,WeatherDisplay:10.37,2014-08-20 00:03:00,
2014-08-20 01:08:00,46.9,43.8,30.04,NW,304,0.0,0.0,89,0.00,CLR,,0.00,0.0,WeatherDisplay:10.37,2014-08-20 00:08:00,
2014-08-20 01:13:00,46.9,43.8,30.04,NW,304,0.0,0.0,89,0.00,CLR,,0.00,0.0,WeatherDisplay:10.37,2014-08-20 00:13:00,
2014-08-20 01:18:00,46.8,43.7,30.04,NW,304,0.0,0.0,89,0.00,CLR,,0.00,0.0,WeatherDisplay:10.37,2014-08-20 00:18:00,
2014-08-20 01:23:00,46.7,43.6,30.04,NW,304,0.0,0.0,89,0.00,CLR,,0.00,0.0,WeatherDisplay:10.37,2014-08-20 00:23:00,
2014-08-20 01:28:00,46.7,43.6,30.04,NW,304,0.0,0.0,89,0.00,CLR,,0.00,0.0,WeatherDisplay:10.37,2014-08-20 00:28:00,
2014-08-20 01:33:00,46.5,43.4,30.04,NW,304,1.2,0.0,89,0.00,CLR,,0.00,0.0,WeatherDisplay:10.37,2014-08-20 00:33:00,
2014-08-20 01:38:00,46.5,43.4,30.03,NW,304,0.0,0.0,89,0.00,CLR,,0.00,0.0,WeatherDisplay:10.37,2014-08-20 00:38:00,
2014-08-20 01:43:00,46.5,43.4,30.04,NW,304,0.0,0.0,89,0.00,CLR,,0.00,0.0,WeatherDisplay:10.37,2014-08-20 00:43:00,
2014-08-20 01:48:00,46.5,43.7,30.04,NW,304,1.2,0.0,90,0.00,CLR,,0.00,0.0,WeatherDisplay:10.37,2014-08-20 00:48:00,
2014-08-20 01:53:00,46.6,43.8,30.04,NW,304,0.0,0.0,90,0.00,CLR,,0.00,0.0,WeatherDisplay:10.37,2014-08-20 00:53:00,
2014-08-20 01:58:00,46.5,43.7,30.03,NW,304,0.0,0.0,90,0.00,CLR,,0.00,0.0,WeatherDisplay:10.37,2014-08-20 00:58:00,
2014-08-20 02:03:00,46.4,43.6,30.04,NW,304,0.0,0.0,90,0.00,CLR,,0.00,0.0,WeatherDisplay:10.37,2014-08-20 01:03:00,
2014-08-20 02:08:00,46.3,43.5,30.03,NW,304,0.0,0.0,90,0.00,CLR,,0.00,0.0,WeatherDisplay:10.37,2014-08-20 01:08:00,
2014-08-20 02:13:00,46.3,43.5,30.03,NW,304,0.0,0.0,90,0.00,CLR,,0.00,0.0,WeatherDisplay:10.37,2014-08-20 01:13:00,
2014-08-20 02:18:00,46.2,43.4,30.03,NW,304,1.2,0.0,90,0.00,CLR,,0.00,0.0,WeatherDisplay:10.37,2014-08-20 01:18:00,
2014-08-20 02:23:00,46.3,43.5,30.03,NW,304,1.2,0.0,90,0.00,CLR,,0.00,0.0,WeatherDisplay:10.37,2014-08-20 01:23:00,
2014-08-20 02:28:00,46.2,43.4,30.03,NW,304,0.0,0.0,90,0.00,CLR,,0.00,0.0,WeatherDisplay:10.37,2014-08-20 01:28:00,
2014-08-20 02:33:00,46.1,43.3,30.03,NW,304,0.0,0.0,90,0.00,CLR,,0.00,0.0,WeatherDisplay:10.37,2014-08-20 01:33:00,
2014-08-20 02:38:00,46.0,43.2,30.03,NW,304,0.0,0.0,90,0.00,CLR,,0.00,0.0,WeatherDisplay:10.37,2014-08-20 01:38:00,
2014-08-20 02:43:00,45.8,43.0,30.03,NW,304,0.0,0.0,90,0.00,CLR,,0.00,0.0,WeatherDisplay:10.37,2014-08-20 01:43:00,
2014-08-20 02:48:00,45.7,42.9,30.03,NW,304,0.0,0.0,90,0.00,CLR,,0.00,0.0,WeatherDisplay:10.37,2014-08-20 01:48:00,
2014-08-20 02:53:00,45.6,42.8,30.03,NW,304,0.0,0.0,90,0.00,CLR,,0.00,0.0,WeatherDisplay:10.37,2014-08-20 01:53:00,
2014-08-20 02:58:00,45.5,42.7,30.03,NW,304,0.0,0.0,90,0.00,CLR,,0.00,0.0,WeatherDisplay:10.37,2014-08-20 01:58:00,
2014-08-20 03:03:00,45.4,42.6,30.04,NW,304,0.0,0.0,90,0.00,CLR,,0.00,0.0,WeatherDisplay:10.37,2014-08-20 02:03:00,
2014-08-20 03:08:00,45.2,42.4,30.03,NW,304,0.0,0.0,90,0.00,CLR,,0.00,0.0,WeatherDisplay:10.37,2014-08-20 02:08:00,
2014-08-20 03:13:00,45.2,42.4,30.04,NW,304,0.0,0.0,90,0.00,CLR,,0.00,0.0,WeatherDisplay:10.37,2014-08-20 02:13:00,
2014-08-20 03:18:00,45.1,42.6,30.04,NW,304,0.0,0.0,91,0.00,CLR,,0.00,0.0,WeatherDisplay:10.37,2014-08-20 02:18:00,
2014-08-20 03:23:00,45.1,42.6,30.04,NW,304,0.0,0.0,91,0.00,CLR,,0.00,0.0,WeatherDisplay:10.37,2014-08-20 02:23:00,
2014-08-20 03:28:00,45.1,42.6,30.04,NW,304,0.0,0.0,91,0.00,CLR,,0.00,0.0,WeatherDisplay:10.37,2014-08-20 02:28:00,
2014-08-20 03:33:00,45.1,42.6,30.04,NW,304,0.0,0.0,91,0.00,CLR,,0.00,0.0,WeatherDisplay:10.37,2014-08-20 02:33:00,
2014-08-20 03:38:00,45.0,42.5,30.04,NW,304,0.0,0.0,91,0.00,CLR,,0.00,0.0,WeatherDisplay:10.37,2014-08-20 02:38:00,
2014-08-20 03:43:00,44.8,42.3,30.04,NW,304,0.0,0.0,91,0.00,CLR,,0.00,0.0,WeatherDisplay:10.37,2014-08-20 02:43:00,
2014-08-20 03:48:00,44.7,42.2,30.04,NW,304,0.0,0.0,91,0.00,CLR,,0.00,0.0,WeatherDisplay:10.37,2014-08-20 02:48:00,
2014-08-20 03:53:00,44.6,42.1,30.04,NW,304,0.0,0.0,91,0.00,CLR,,0.00,0.0,WeatherDisplay:10.37,2014-08-20 02:53:00,
2014-08-20 03:58:00,44.6,42.1,30.04,NW,304,0.0,0.0,91,0.00,CLR,,0.00,0.0,WeatherDisplay:10.37,2014-08-20 02:58:00,
2014-08-20 04:03:00,44.5,42.0,30.04,NW,304,0.0,0.0,91,0.00,CLR,,0.00,0.0,WeatherDisplay:10.37,2014-08-20 03:03:00,
2014-08-20 04:08:00,44.5,42.0,30.03,NW,304,0.0,0.0,91,0.00,CLR,,0.00,0.0,WeatherDisplay:10.37,2014-08-20 03:08:00,
2014-08-20 04:13:00,44.5,42.0,30.04,NW,304,0.0,0.0,91,0.00,CLR,,0.00,0.0,WeatherDisplay:10.37,2014-08-20 03:13:00,
2014-08-20 04:18:00,44.5,42.3,30.03,NW,304,0.0,0.0,92,0.00,CLR,,0.00,0.0,WeatherDisplay:10.37,2014-08-20 03:18:00,
2014-08-20 04:23:00,44.4,42.2,30.03,NW,304,0.0,0.0,92,0.00,CLR,,0.00,0.0,WeatherDisplay:10.37,2014-08-20 03:23:00,
2014-08-20 04:29:00,44.3,42.1,30.04,NW,304,0.0,0.0,92,0.00,CLR,,0.00,0.0,WeatherDisplay:10.37,2014-08-20 03:29:00,
2014-08-20 04:34:00,44.2,42.0,30.04,NW,304,0.0,0.0,92,0.00,CLR,,0.00,0.0,WeatherDisplay:10.37,2014-08-20 03:34:00,
2014-08-20 04:39:00,44.1,41.9,30.04,NW,304,0.0,0.0,92,0.00,CLR,,0.00,0.0,WeatherDisplay:10.37,2014-08-20 03:39:00,
2014-08-20 04:44:00,44.0,41.8,30.04,NW,304,0.0,0.0,92,0.00,CLR,,0.00,0.0,WeatherDisplay:10.37,2014-08-20 03:44:00,
2014-08-20 04:49:00,44.0,41.8,30.04,NW,304,0.0,0.0,92,0.00,CLR,,0.00,0.0,WeatherDisplay:10.37,2014-08-20 03:49:00,
2014-08-20 04:54:00,43.8,41.6,30.04,NW,304,0.0,0.0,92,0.00,CLR,,0.00,0.0,WeatherDisplay:10.37,2014-08-20 03:54:00,
2014-08-20 04:59:00,43.7,41.5,30.04,NW,304,0.0,0.0,92,0.00,CLR,,0.00,0.0,WeatherDisplay:10.37,2014-08-20 03:59:00,
2014-08-20 05:01:00,43.7,41.5,30.04,NW,304,0.0,0.0,92,0.00,CLR,,0.00,0.0,WeatherDisplay:10.37,2014-08-20 04:01:00,
2014-08-20 05:02:00,43.7,41.5,30.04,NW,304,0.0,0.0,92,0.00,CLR,,0.00,0.0,WeatherDisplay:10.37,2014-08-20 04:02:00,
2014-08-20 05:07:00,43.5,41.3,30.04,NW,304,0.0,0.0,92,0.00,CLR,,0.00,0.0,WeatherDisplay:10.37,2014-08-20 04:07:00,
2014-08-20 05:12:00,43.3,41.1,30.04,NW,304,0.0,0.0,92,0.00,CLR,,0.00,0.0,WeatherDisplay:10.37,2014-08-20 04:12:00,
2014-08-20 05:17:00,43.2,41.0,30.04,NW,304,0.0,0.0,92,0.00,CLR,,0.00,0.0,WeatherDisplay:10.37,2014-08-20 04:17:00,
2014-08-20 05:22:00,43.1,40.9,30.04,NW,304,0.0,0.0,92,0.00,CLR,,0.00,0.0,WeatherDisplay:10.37,2014-08-20 04:22:00,
2014-08-20 05:27:00,42.9,40.7,30.05,NW,304,0.0,0.0,92,0.00,OVC,,0.00,0.0,WeatherDisplay:10.37,2014-08-20 04:27:00,
2014-08-20 05:32:00,42.8,40.6,30.04,NW,304,0.0,0.0,92,0.00,OVC,,0.00,0.0,WeatherDisplay:10.37,2014-08-20 04:32:00,
2014-08-20 05:37:00,42.8,40.6,30.04,NW,304,0.0,0.0,92,0.00,OVC,,0.00,0.0,WeatherDisplay:10.37,2014-08-20 04:37:00,
2014-08-20 05:42:00,42.7,40.5,30.05,NW,304,0.0,0.0,92,0.00,OVC,,0.00,0.0,WeatherDisplay:10.37,2014-08-20 04:42:00,
2014-08-20 05:47:00,42.6,40.4,30.05,NW,304,0.0,0.0,92,0.00,OVC,,0.00,0.0,WeatherDisplay:10.37,2014-08-20 04:47:00,
2014-08-20 05:52:00,42.6,40.4,30.05,NW,304,0.0,0.0,92,0.00,OVC,,0.00,0.0,WeatherDisplay:10.37,2014-08-20 04:52:00,
2014-08-20 05:57:00,42.6,40.4,30.05,NW,304,0.0,0.0,92,0.00,OVC,,0.00,0.0,WeatherDisplay:10.37,2014-08-20 04:57:00,
2014-08-20 06:02:00,42.5,40.3,30.05,NW,304,0.0,0.0,92,0.00,OVC,,0.00,5.0,WeatherDisplay:10.37,2014-08-20 05:02:00,
2014-08-20 06:07:00,42.5,40.3,30.05,NW,304,0.0,0.0,92,0.00,OVC,,0.00,7.0,WeatherDisplay:10.37,2014-08-20 05:07:00,
2014-08-20 06:12:00,42.5,40.3,30.05,NW,304,0.0,0.0,92,0.00,BKN,,0.00,11.0,WeatherDisplay:10.37,2014-08-20 05:12:00,
2014-08-20 06:17:00,42.5,40.3,30.05,NW,304,0.0,0.0,92,0.00,BKN,,0.00,12.0,WeatherDisplay:10.37,2014-08-20 05:17:00,
2014-08-20 06:22:00,42.4,40.2,30.05,NW,304,0.0,0.0,92,0.00,BKN,,0.00,18.0,WeatherDisplay:10.37,2014-08-20 05:22:00,
2014-08-20 06:27:00,42.3,40.1,30.05,NW,304,0.0,0.0,92,0.00,BKN,,0.00,37.0,WeatherDisplay:10.37,2014-08-20 05:27:00,
2014-08-20 06:32:00,42.4,40.5,30.05,NW,304,0.0,0.0,93,0.00,BKN,,0.00,49.0,WeatherDisplay:10.37,2014-08-20 05:32:00,
2014-08-20 06:37:00,42.5,40.6,30.05,NW,304,0.0,0.0,93,0.00,BKN,,0.00,54.0,WeatherDisplay:10.37,2014-08-20 05:37:00,
2014-08-20 06:42:00,42.6,40.7,30.05,NW,304,0.0,0.0,93,0.00,BKN,,0.00,70.0,WeatherDisplay:10.37,2014-08-20 05:42:00,
2014-08-20 06:47:00,42.8,40.9,30.05,NW,304,0.0,0.0,93,0.00,BKN,,0.00,81.0,WeatherDisplay:10.37,2014-08-20 05:47:00,
2014-08-20 06:52:00,43.1,41.2,30.05,NW,304,0.0,0.0,93,0.00,BKN,,0.00,90.0,WeatherDisplay:10.37,2014-08-20 05:52:00,
2014-08-20 06:57:00,43.4,41.5,30.05,NW,304,0.0,0.0,93,0.00,BKN,,0.00,98.0,WeatherDisplay:10.37,2014-08-20 05:57:00,
2014-08-20 07:02:00,43.9,42.3,30.05,NW,304,0.0,0.0,94,0.00,BKN,,0.00,111.0,WeatherDisplay:10.37,2014-08-20 06:02:00,
2014-08-20 07:07:00,44.6,43.0,30.05,NW,304,0.0,0.0,94,0.00,BKN,,0.00,123.0,WeatherDisplay:10.37,2014-08-20 06:07:00,
2014-08-20 07:12:00,45.2,43.6,30.05,NW,304,0.0,0.0,94,0.00,BKN,,0.00,135.0,WeatherDisplay:10.37,2014-08-20 06:12:00,
2014-08-20 07:17:00,45.6,44.0,30.05,NW,304,0.0,0.0,94,0.00,BKN,,0.00,146.0,WeatherDisplay:10.37,2014-08-20 06:17:00,
2014-08-20 07:22:00,46.1,44.5,30.05,NW,304,0.0,0.0,94,0.00,BKN,,0.00,156.0,WeatherDisplay:10.37,2014-08-20 06:22:00,
2014-08-20 07:27:00,46.5,44.9,30.05,NW,304,0.0,0.0,94,0.00,BKN,,0.00,160.0,WeatherDisplay:10.37,2014-08-20 06:27:00,
2014-08-20 07:32:00,46.9,45.3,30.05,NW,304,0.0,0.0,94,0.00,BKN,,0.00,179.0,WeatherDisplay:10.37,2014-08-20 06:32:00,
2014-08-20 07:37:00,47.2,45.6,30.05,NW,304,0.0,0.0,94,0.00,SCT,,0.00,190.0,WeatherDisplay:10.37,2014-08-20 06:37:00,
2014-08-20 07:42:00,47.5,45.9,30.05,NW,304,3.5,3.5,94,0.00,SCT,,0.00,202.0,WeatherDisplay:10.37,2014-08-20 06:42:00,
2014-08-20 07:47:00,47.8,46.2,30.05,NW,304,2.3,2.3,94,0.00,SCT,,0.00,216.0,WeatherDisplay:10.37,2014-08-20 06:47:00,
2014-08-20 07:52:00,48.0,46.4,30.06,NW,304,1.2,1.2,94,0.00,SCT,,0.00,230.0,WeatherDisplay:10.37,2014-08-20 06:52:00,
2014-08-20 07:57:00,48.3,46.7,30.06,NW,304,2.3,2.3,94,0.00,SCT,,0.00,246.0,WeatherDisplay:10.37,2014-08-20 06:57:00,
2014-08-20 08:02:00,48.6,46.7,30.06,NW,304,3.5,3.5,93,0.00,SCT,,0.00,257.0,WeatherDisplay:10.37,2014-08-20 07:02:00,
2014-08-20 08:07:00,48.9,46.7,30.06,NW,304,9.2,9.2,92,0.00,SCT,,0.00,269.0,WeatherDisplay:10.37,2014-08-20 07:07:00,
2014-08-20 08:12:00,49.2,47.0,30.06,NW,304,4.6,4.6,92,0.00,SCT,,0.00,285.0,WeatherDisplay:10.37,2014-08-20 07:12:00,
2014-08-20 08:17:00,49.4,46.9,30.06,NW,304,3.5,3.5,91,0.00,SCT,,0.00,299.0,WeatherDisplay:10.37,2014-08-20 07:17:00,
2014-08-20 08:22:00,49.8,47.3,30.06,NW,304,3.5,3.5,91,0.00,SCT,,0.00,316.0,WeatherDisplay:10.37,2014-08-20 07:22:00,
2014-08-20 08:27:00,50.1,47.3,30.06,NW,304,2.3,2.3,90,0.00,SCT,,0.00,332.0,WeatherDisplay:10.37,2014-08-20 07:27:00,
2014-08-20 08:32:00,50.3,47.2,30.06,NW,304,4.6,4.6,89,0.00,SCT,,0.00,345.0,WeatherDisplay:10.37,2014-08-20 07:32:00,
2014-08-20 08:37:00,50.6,47.2,30.06,NW,304,4.6,4.6,88,0.00,SCT,,0.00,355.0,WeatherDisplay:10.37,2014-08-20 07:37:00,
2014-08-20 08:42:00,51.0,47.3,30.06,NW,304,6.9,6.9,87,0.00,SCT,,0.00,369.0,WeatherDisplay:10.37,2014-08-20 07:42:00,
2014-08-20 08:47:00,51.2,47.5,30.06,NW,304,1.2,1.2,87,0.00,SCT,,0.00,380.0,WeatherDisplay:10.37,2014-08-20 07:47:00,
2014-08-20 08:52:00,51.5,47.5,30.06,NW,304,4.0,4.0,86,0.00,SCT,,0.00,396.0,WeatherDisplay:10.37,2014-08-20 07:52:00,
2014-08-20 08:57:00,51.9,47.8,30.06,NW,304,1.2,1.2,86,0.00,SCT,,0.00,413.0,WeatherDisplay:10.37,2014-08-20 07:57:00,
2014-08-20 09:02:00,52.3,47.9,30.06,NW,304,3.5,3.5,85,0.00,SCT,,0.00,429.0,WeatherDisplay:10.37,2014-08-20 08:02:00,
2014-08-20 09:07:00,52.7,48.0,30.06,NW,304,4.6,4.6,84,0.00,FEW,,0.00,445.0,WeatherDisplay:10.37,2014-08-20 08:07:00,
2014-08-20 09:12:00,53.0,48.3,30.06,NW,304,3.5,3.5,84,0.00,FEW,,0.00,455.0,WeatherDisplay:10.37,2014-08-20 08:12:00,
2014-08-20 09:17:00,53.3,48.6,30.06,NW,304,3.5,0.0,84,0.00,FEW,,0.00,468.0,WeatherDisplay:10.37,2014-08-20 08:17:00,
2014-08-20 09:22:00,53.8,48.4,30.06,NW,304,3.5,3.5,82,0.00,FEW,,0.00,480.0,WeatherDisplay:10.37,2014-08-20 08:22:00,
2014-08-20 09:27:00,54.2,48.5,30.06,NW,307,4.6,4.6,81,0.00,FEW,,0.00,490.0,WeatherDisplay:10.37,2014-08-20 08:27:00,
2014-08-20 09:32:00,54.5,48.5,30.06,NW,307,1.2,0.0,80,0.00,FEW,,0.00,503.0,WeatherDisplay:10.37,2014-08-20 08:32:00,
2014-08-20 09:37:00,54.9,48.8,30.07,NW,304,6.9,6.9,80,0.00,FEW,,0.00,515.0,WeatherDisplay:10.37,2014-08-20 08:37:00,
2014-08-20 09:42:00,55.1,48.4,30.07,WNW,287,6.0,6.0,78,0.00,FEW,,0.00,531.0,WeatherDisplay:10.37,2014-08-20 08:42:00,
2014-08-20 09:47:00,55.2,48.5,30.07,WNW,284,9.2,9.2,78,0.00,FEW,,0.00,538.0,WeatherDisplay:10.37,2014-08-20 08:47:00,
2014-08-20 09:52:00,55.5,48.4,30.06,West,272,4.6,4.6,77,0.00,FEW,,0.00,548.0,WeatherDisplay:10.37,2014-08-20 08:52:00,
2014-08-20 09:57:00,55.6,48.2,30.06,West,273,2.3,2.3,76,0.00,FEW,,0.00,564.0,WeatherDisplay:10.37,2014-08-20 08:57:00,
2014-08-20 10:02:00,55.9,48.1,30.06,NW,315,10.4,10.4,75,0.00,FEW,,0.00,573.0,WeatherDisplay:10.37,2014-08-20 09:02:00,
2014-08-20 10:07:00,56.3,48.8,30.06,NW,315,3.5,3.5,76,0.00,FEW,,0.00,585.0,WeatherDisplay:10.37,2014-08-20 09:07:00,
2014-08-20 10:12:00,56.7,48.9,30.06,NW,304,4.0,4.0,75,0.00,FEW,,0.00,594.0,WeatherDisplay:10.37,2014-08-20 09:12:00,
2014-08-20 10:17:00,57.1,48.2,30.06,WNW,297,6.0,6.0,72,0.00,FEW,,0.00,615.0,WeatherDisplay:10.37,2014-08-20 09:17:00,
2014-08-20 10:22:00,57.2,47.1,30.06,WNW,290,10.4,10.4,69,0.00,FEW,,0.00,621.0,WeatherDisplay:10.37,2014-08-20 09:22:00,
2014-08-20 10:27:00,57.3,47.2,30.06,WNW,288,5.0,5.0,69,0.00,FEW,,0.00,631.0,WeatherDisplay:10.37,2014-08-20 09:27:00,
2014-08-20 10:32:00,57.9,48.2,30.05,SW,226,6.9,6.9,70,0.00,FEW,,0.00,659.0,WeatherDisplay:10.37,2014-08-20 09:32:00,
2014-08-20 10:37:00,58.2,47.7,30.06,West,275,10.4,10.4,68,0.00,CLR,,0.00,701.0,WeatherDisplay:10.37,2014-08-20 09:37:00,
2014-08-20 10:42:00,58.4,47.5,30.06,West,276,3.5,3.5,67,0.00,FEW,,0.00,675.0,WeatherDisplay:10.37,2014-08-20 09:42:00,
2014-08-20 10:47:00,58.7,47.8,30.06,WNW,286,2.3,2.3,67,0.00,FEW,,0.00,724.0,WeatherDisplay:10.37,2014-08-20 09:47:00,
2014-08-20 10:52:00,58.7,47.4,30.06,WNW,288,6.9,6.9,66,0.00,CLR,,0.00,701.0,WeatherDisplay:10.37,2014-08-20 09:52:00,
2014-08-20 10:57:00,58.7,46.1,30.06,WNW,298,8.1,8.1,63,0.00,CLR,,0.00,722.0,WeatherDisplay:10.37,2014-08-20 09:57:00,
2014-08-20 11:02:00,59.0,46.8,30.06,WNW,298,5.8,5.8,64,0.00,CLR,,0.00,765.0,WeatherDisplay:10.37,2014-08-20 10:02:00,
2014-08-20 11:07:00,59.6,48.2,30.05,WNW,294,7.0,7.0,66,0.00,CLR,,0.00,814.0,WeatherDisplay:10.37,2014-08-20 10:07:00,
2014-08-20 11:12:00,60.1,47.5,30.06,NW,309,4.6,4.6,63,0.00,CLR,,0.00,833.0,WeatherDisplay:10.37,2014-08-20 10:12:00,
2014-08-20 11:17:00,59.9,46.0,30.06,WNW,290,11.5,11.5,60,0.00,CLR,,0.00,844.0,WeatherDisplay:10.37,2014-08-20 10:17:00,
2014-08-20 11:22:00,59.8,46.7,30.06,WNW,298,5.8,5.8,62,0.00,CLR,,0.00,195.0,WeatherDisplay:10.37,2014-08-20 10:22:00,
2014-08-20 11:27:00,59.7,47.1,30.06,WNW,298,3.5,3.5,63,0.00,SCT,,0.00,174.0,WeatherDisplay:10.37,2014-08-20 10:27:00,
2014-08-20 11:32:00,60.1,47.5,30.05,WNW,296,4.6,4.6,63,0.00,BKN,,0.00,584.0,WeatherDisplay:10.37,2014-08-20 10:32:00,
2014-08-20 11:37:00,60.7,47.2,30.06,WNW,287,6.9,6.9,61,0.00,FEW,,0.00,932.0,WeatherDisplay:10.37,2014-08-20 10:37:00,
2014-08-20 11:42:00,60.2,47.6,30.06,WNW,288,9.2,9.2,63,0.00,CLR,,0.00,842.0,WeatherDisplay:10.37,2014-08-20 10:42:00,
2014-08-20 11:47:00,59.8,46.3,30.06,WNW,296,10.4,10.4,61,0.00,CLR,,0.00,809.0,WeatherDisplay:10.37,2014-08-20 10:47:00,
2014-08-20 11:52:00,59.8,46.3,30.06,WNW,294,9.2,9.2,61,0.00,CLR,,0.00,888.0,WeatherDisplay:10.37,2014-08-20 10:52:00,
2014-08-20 11:57:00,60.7,47.6,30.06,NW,308,10.4,10.4,62,0.00,CLR,,0.00,990.0,WeatherDisplay:10.37,2014-08-20 10:57:00,
2014-08-20 12:02:00,60.7,47.2,30.06,WNW,290,6.9,6.9,61,0.00,CLR,,0.00,322.0,WeatherDisplay:10.37,2014-08-20 11:02:00,
2014-08-20 12:07:00,61.1,47.1,30.05,NW,310,9.2,9.2,60,0.00,CLR,,0.00,970.0,WeatherDisplay:10.37,2014-08-20 11:07:00,
2014-08-20 12:12:00,61.0,46.1,30.05,NW,310,6.0,6.0,58,0.00,SCT,,0.00,272.0,WeatherDisplay:10.37,2014-08-20 11:12:00,
2014-08-20 12:17:00,60.7,46.3,30.06,NW,306,8.1,8.1,59,0.00,BKN,,0.00,851.0,WeatherDisplay:10.37,2014-08-20 11:17:00,
2014-08-20 12:22:00,61.3,46.4,30.05,WNW,287,9.2,9.2,58,0.00,SCT,,0.00,870.0,WeatherDisplay:10.37,2014-08-20 11:22:00,
2014-08-20 12:27:00,62.1,47.1,30.05,WSW,248,3.5,3.6,58,0.00,CLR,,0.00,877.0,WeatherDisplay:10.37,2014-08-20 11:27:00,
2014-08-20 12:32:00,62.3,46.9,30.05,West,264,12.7,12.7,57,0.00,CLR,,0.00,853.0,WeatherDisplay:10.37,2014-08-20 11:32:00,
2014-08-20 12:37:00,62.3,46.4,30.05,West,260,5.8,5.8,56,0.00,CLR,,0.00,860.0,WeatherDisplay:10.37,2014-08-20 11:37:00,
2014-08-20 12:42:00,63.0,47.1,30.05,WNW,294,6.0,6.0,56,0.00,CLR,,0.00,882.0,WeatherDisplay:10.37,2014-08-20 11:42:00,
2014-08-20 12:47:00,62.3,46.4,30.05,WNW,292,11.5,11.5,56,0.00,SCT,,0.00,172.0,WeatherDisplay:10.37,2014-08-20 11:47:00,
2014-08-20 12:52:00,61.3,45.0,30.05,WNW,288,10.4,10.4,55,0.00,BKN,,0.00,912.0,WeatherDisplay:10.37,2014-08-20 11:52:00,